sensor_id;sensor_type;location;lat;lon;timestamp;temperature;humidity
66373;SHT30;53168;51.146;17.120;2023-08-30T00:00:35;15.90;83.78
66373;SHT30;53168;51.146;17.120;2023-08-30T00:03:25;15.85;83.90
66373;SHT30;53168;51.146;17.120;2023-08-30T00:05:55;15.84;83.98
66373;SHT30;53168;51.146;17.120;2023-08-30T00:08:30;15.84;83.99
66373;SHT30;53168;51.146;17.120;2023-08-30T00:11:00;15.83;84.00
66373;SHT30;53168;51.146;17.120;2023-08-30T00:16:32;15.84;84.00
66373;SHT30;53168;51.146;17.120;2023-08-30T00:19:02;15.85;84.00
66373;SHT30;53168;51.146;17.120;2023-08-30T00:21:32;15.83;83.96
66373;SHT30;53168;51.146;17.120;2023-08-30T00:24:02;15.82;84.02
66373;SHT30;53168;51.146;17.120;2023-08-30T00:26:31;15.81;84.06
66373;SHT30;53168;51.146;17.120;2023-08-30T00:29:03;15.79;84.11
66373;SHT30;53168;51.146;17.120;2023-08-30T00:31:32;15.80;84.20
66373;SHT30;53168;51.146;17.120;2023-08-30T00:34:05;15.81;84.20
66373;SHT30;53168;51.146;17.120;2023-08-30T00:36:35;15.80;84.20
66373;SHT30;53168;51.146;17.120;2023-08-30T00:39:04;15.77;84.23
66373;SHT30;53168;51.146;17.120;2023-08-30T00:41:34;15.76;84.30
66373;SHT30;53168;51.146;17.120;2023-08-30T00:44:05;15.73;84.27
66373;SHT30;53168;51.146;17.120;2023-08-30T00:46:34;15.71;84.31
66373;SHT30;53168;51.146;17.120;2023-08-30T00:49:05;15.72;84.33
66373;SHT30;53168;51.146;17.120;2023-08-30T00:51:35;15.71;84.37
66373;SHT30;53168;51.146;17.120;2023-08-30T00:54:06;15.70;84.40
66373;SHT30;53168;51.146;17.120;2023-08-30T00:56:36;15.68;84.40
66373;SHT30;53168;51.146;17.120;2023-08-30T00:59:06;15.65;84.44
66373;SHT30;53168;51.146;17.120;2023-08-30T01:01:36;15.63;84.50
66373;SHT30;53168;51.146;17.120;2023-08-30T01:04:09;15.60;84.54
66373;SHT30;53168;51.146;17.120;2023-08-30T01:06:38;15.61;84.60
66373;SHT30;53168;51.146;17.120;2023-08-30T01:09:09;15.59;84.60
66373;SHT30;53168;51.146;17.120;2023-08-30T01:11:45;15.58;84.60
66373;SHT30;53168;51.146;17.120;2023-08-30T01:14:24;15.58;84.61
66373;SHT30;53168;51.146;17.120;2023-08-30T01:16:59;15.56;84.60
66373;SHT30;53168;51.146;17.120;2023-08-30T01:19:42;15.56;84.60
66373;SHT30;53168;51.146;17.120;2023-08-30T01:22:29;15.58;84.62
66373;SHT30;53168;51.146;17.120;2023-08-30T01:25:20;15.57;84.69
66373;SHT30;53168;51.146;17.120;2023-08-30T01:28:12;15.56;84.69
66373;SHT30;53168;51.146;17.120;2023-08-30T01:30:46;15.55;84.70
66373;SHT30;53168;51.146;17.120;2023-08-30T01:33:17;15.54;84.70
66373;SHT30;53168;51.146;17.120;2023-08-30T01:35:47;15.55;84.80
66373;SHT30;53168;51.146;17.120;2023-08-30T01:38:18;15.57;84.77
66373;SHT30;53168;51.146;17.120;2023-08-30T01:40:49;15.57;84.73
66373;SHT30;53168;51.146;17.120;2023-08-30T01:43:21;15.55;84.72
66373;SHT30;53168;51.146;17.120;2023-08-30T01:45:52;15.52;84.74
66373;SHT30;53168;51.146;17.120;2023-08-30T01:48:26;15.53;84.80
66373;SHT30;53168;51.146;17.120;2023-08-30T01:50:58;15.54;84.78
66373;SHT30;53168;51.146;17.120;2023-08-30T01:53:55;15.54;84.70
66373;SHT30;53168;51.146;17.120;2023-08-30T01:56:43;15.52;84.69
66373;SHT30;53168;51.146;17.120;2023-08-30T01:59:50;15.50;84.69
66373;SHT30;53168;51.146;17.120;2023-08-30T02:03:02;15.47;84.69
66373;SHT30;53168;51.146;17.120;2023-08-30T02:05:52;15.46;84.69
66373;SHT30;53168;51.146;17.120;2023-08-30T02:08:38;15.46;84.70
66373;SHT30;53168;51.146;17.120;2023-08-30T02:11:32;15.48;84.71
66373;SHT30;53168;51.146;17.120;2023-08-30T02:14:10;15.51;84.62
66373;SHT30;53168;51.146;17.120;2023-08-30T02:16:45;15.50;84.59
66373;SHT30;53168;51.146;17.120;2023-08-30T02:19:17;15.48;84.53
66373;SHT30;53168;51.146;17.120;2023-08-30T02:21:49;15.47;84.50
66373;SHT30;53168;51.146;17.120;2023-08-30T02:24:19;15.46;84.50
66373;SHT30;53168;51.146;17.120;2023-08-30T02:26:48;15.45;84.52
66373;SHT30;53168;51.146;17.120;2023-08-30T02:29:18;15.45;84.56
66373;SHT30;53168;51.146;17.120;2023-08-30T02:31:47;15.45;84.54
66373;SHT30;53168;51.146;17.120;2023-08-30T02:34:17;15.45;84.52
66373;SHT30;53168;51.146;17.120;2023-08-30T02:36:46;15.41;84.50
66373;SHT30;53168;51.146;17.120;2023-08-30T02:39:16;15.38;84.49
66373;SHT30;53168;51.146;17.120;2023-08-30T02:41:46;15.34;84.54
66373;SHT30;53168;51.146;17.120;2023-08-30T02:44:16;15.34;84.60
66373;SHT30;53168;51.146;17.120;2023-08-30T02:46:45;15.34;84.60
66373;SHT30;53168;51.146;17.120;2023-08-30T02:49:15;15.36;84.61
66373;SHT30;53168;51.146;17.120;2023-08-30T02:51:45;15.38;84.60
66373;SHT30;53168;51.146;17.120;2023-08-30T02:54:15;15.39;84.60
66373;SHT30;53168;51.146;17.120;2023-08-30T02:56:45;15.40;84.50
66373;SHT30;53168;51.146;17.120;2023-08-30T02:59:15;15.41;84.50
66373;SHT30;53168;51.146;17.120;2023-08-30T03:01:45;15.43;84.49
66373;SHT30;53168;51.146;17.120;2023-08-30T03:04:16;15.43;84.43
66373;SHT30;53168;51.146;17.120;2023-08-30T03:06:46;15.40;84.40
66373;SHT30;53168;51.146;17.120;2023-08-30T03:09:15;15.37;84.40
66373;SHT30;53168;51.146;17.120;2023-08-30T03:11:45;15.37;84.40
66373;SHT30;53168;51.146;17.120;2023-08-30T03:14:14;15.35;84.40
66373;SHT30;53168;51.146;17.120;2023-08-30T03:16:44;15.35;84.42
66373;SHT30;53168;51.146;17.120;2023-08-30T03:19:15;15.34;84.40
66373;SHT30;53168;51.146;17.120;2023-08-30T03:21:45;15.32;84.40
66373;SHT30;53168;51.146;17.120;2023-08-30T03:24:15;15.29;84.41
66373;SHT30;53168;51.146;17.120;2023-08-30T03:26:45;15.25;84.50
66373;SHT30;53168;51.146;17.120;2023-08-30T03:29:15;15.24;84.58
66373;SHT30;53168;51.146;17.120;2023-08-30T03:31:44;15.22;84.60
66373;SHT30;53168;51.146;17.120;2023-08-30T03:34:13;15.21;84.60
66373;SHT30;53168;51.146;17.120;2023-08-30T03:36:43;15.18;84.61
66373;SHT30;53168;51.146;17.120;2023-08-30T03:39:18;15.18;84.69
66373;SHT30;53168;51.146;17.120;2023-08-30T03:41:48;15.18;84.70
66373;SHT30;53168;51.146;17.120;2023-08-30T03:44:24;15.19;84.70
66373;SHT30;53168;51.146;17.120;2023-08-30T03:46:53;15.20;84.70
66373;SHT30;53168;51.146;17.120;2023-08-30T03:49:25;15.18;84.77
66373;SHT30;53168;51.146;17.120;2023-08-30T03:51:54;15.19;84.74
66373;SHT30;53168;51.146;17.120;2023-08-30T03:54:24;15.16;84.71
66373;SHT30;53168;51.146;17.120;2023-08-30T03:56:53;15.15;84.79
66373;SHT30;53168;51.146;17.120;2023-08-30T03:59:23;15.14;84.79
66373;SHT30;53168;51.146;17.120;2023-08-30T04:01:55;15.15;84.80
66373;SHT30;53168;51.146;17.120;2023-08-30T04:04:25;15.18;84.75
66373;SHT30;53168;51.146;17.120;2023-08-30T04:06:54;15.18;84.70
66373;SHT30;53168;51.146;17.120;2023-08-30T04:09:26;15.19;84.70
66373;SHT30;53168;51.146;17.120;2023-08-30T04:11:55;15.19;84.70
66373;SHT30;53168;51.146;17.120;2023-08-30T04:14:26;15.21;84.70
66373;SHT30;53168;51.146;17.120;2023-08-30T04:16:55;15.24;84.70
66373;SHT30;53168;51.146;17.120;2023-08-30T04:19:25;15.26;84.64
66373;SHT30;53168;51.146;17.120;2023-08-30T04:21:55;15.28;84.62
66373;SHT30;53168;51.146;17.120;2023-08-30T04:24:24;15.30;84.60
66373;SHT30;53168;51.146;17.120;2023-08-30T04:26:54;15.31;84.60
66373;SHT30;53168;51.146;17.120;2023-08-30T04:29:23;15.30;84.57
66373;SHT30;53168;51.146;17.120;2023-08-30T04:31:53;15.31;84.60
66373;SHT30;53168;51.146;17.120;2023-08-30T04:34:23;15.32;84.60
66373;SHT30;53168;51.146;17.120;2023-08-30T04:36:53;15.32;84.58
66373;SHT30;53168;51.146;17.120;2023-08-30T04:39:23;15.32;84.52
66373;SHT30;53168;51.146;17.120;2023-08-30T04:41:53;15.30;84.59
66373;SHT30;53168;51.146;17.120;2023-08-30T04:44:24;15.31;84.60
66373;SHT30;53168;51.146;17.120;2023-08-30T04:46:55;15.31;84.60
66373;SHT30;53168;51.146;17.120;2023-08-30T04:49:25;15.31;84.60
66373;SHT30;53168;51.146;17.120;2023-08-30T04:51:55;15.33;84.63
66373;SHT30;53168;51.146;17.120;2023-08-30T04:54:24;15.35;84.60
66373;SHT30;53168;51.146;17.120;2023-08-30T04:56:53;15.37;84.60
66373;SHT30;53168;51.146;17.120;2023-08-30T04:59:26;15.39;84.60
66373;SHT30;53168;51.146;17.120;2023-08-30T05:01:57;15.44;84.60
66373;SHT30;53168;51.146;17.120;2023-08-30T05:04:28;15.47;84.43
66373;SHT30;53168;51.146;17.120;2023-08-30T05:06:58;15.48;84.34
66373;SHT30;53168;51.146;17.120;2023-08-30T05:09:28;15.50;84.39
66373;SHT30;53168;51.146;17.120;2023-08-30T05:11:58;15.54;84.32
66373;SHT30;53168;51.146;17.120;2023-08-30T05:14:39;15.57;84.24
66373;SHT30;53168;51.146;17.120;2023-08-30T05:17:16;15.59;84.13
66373;SHT30;53168;51.146;17.120;2023-08-30T05:19:53;15.60;84.00
66373;SHT30;53168;51.146;17.120;2023-08-30T05:22:23;15.61;84.00
66373;SHT30;53168;51.146;17.120;2023-08-30T05:24:55;15.65;84.02
66373;SHT30;53168;51.146;17.120;2023-08-30T05:27:25;15.69;83.99
66373;SHT30;53168;51.146;17.120;2023-08-30T05:30:03;15.73;83.91
66373;SHT30;53168;51.146;17.120;2023-08-30T05:32:36;15.78;83.88
66373;SHT30;53168;51.146;17.120;2023-08-30T05:35:23;15.81;83.79
66373;SHT30;53168;51.146;17.120;2023-08-30T05:38:14;15.87;83.75
66373;SHT30;53168;51.146;17.120;2023-08-30T05:41:00;15.95;83.71
66373;SHT30;53168;51.146;17.120;2023-08-30T05:43:32;16.03;83.49
66373;SHT30;53168;51.146;17.120;2023-08-30T05:46:19;16.06;83.35
66373;SHT30;53168;51.146;17.120;2023-08-30T05:48:58;16.11;83.40
66373;SHT30;53168;51.146;17.120;2023-08-30T05:52:14;16.15;83.39
66373;SHT30;53168;51.146;17.120;2023-08-30T05:54:49;16.17;83.28
66373;SHT30;53168;51.146;17.120;2023-08-30T05:57:19;16.14;83.13
66373;SHT30;53168;51.146;17.120;2023-08-30T05:59:53;16.13;83.19
66373;SHT30;53168;51.146;17.120;2023-08-30T06:02:23;16.15;83.12
66373;SHT30;53168;51.146;17.120;2023-08-30T06:04:53;16.21;83.10
66373;SHT30;53168;51.146;17.120;2023-08-30T06:07:22;16.26;83.01
66373;SHT30;53168;51.146;17.120;2023-08-30T06:09:52;16.28;82.86
66373;SHT30;53168;51.146;17.120;2023-08-30T06:12:25;16.30;82.92
66373;SHT30;53168;51.146;17.120;2023-08-30T06:14:57;16.36;82.87
66373;SHT30;53168;51.146;17.120;2023-08-30T06:17:27;16.36;82.74
66373;SHT30;53168;51.146;17.120;2023-08-30T06:19:56;16.36;82.77
66373;SHT30;53168;51.146;17.120;2023-08-30T06:22:25;16.40;82.70
66373;SHT30;53168;51.146;17.120;2023-08-30T06:24:55;16.42;82.50
66373;SHT30;53168;51.146;17.120;2023-08-30T06:27:43;16.43;82.47
66373;SHT30;53168;51.146;17.120;2023-08-30T06:30:24;16.45;82.20
66373;SHT30;53168;51.146;17.120;2023-08-30T06:32:53;16.49;82.15
66373;SHT30;53168;51.146;17.120;2023-08-30T06:35:23;16.56;82.08
66373;SHT30;53168;51.146;17.120;2023-08-30T06:37:53;16.63;82.05
66373;SHT30;53168;51.146;17.120;2023-08-30T06:40:24;16.67;81.92
66373;SHT30;53168;51.146;17.120;2023-08-30T06:42:53;16.68;81.89
66373;SHT30;53168;51.146;17.120;2023-08-30T06:45:23;16.69;81.85
66373;SHT30;53168;51.146;17.120;2023-08-30T06:47:55;16.67;81.80
66373;SHT30;53168;51.146;17.120;2023-08-30T06:51:15;16.75;81.81
66373;SHT30;53168;51.146;17.120;2023-08-30T06:53:44;16.82;81.55
66373;SHT30;53168;51.146;17.120;2023-08-30T06:56:15;16.83;81.19
66373;SHT30;53168;51.146;17.120;2023-08-30T06:58:44;16.86;81.21
66373;SHT30;53168;51.146;17.120;2023-08-30T07:01:14;16.89;81.11
66373;SHT30;53168;51.146;17.120;2023-08-30T07:03:43;16.86;80.90
66373;SHT30;53168;51.146;17.120;2023-08-30T07:06:13;16.84;80.91
66373;SHT30;53168;51.146;17.120;2023-08-30T07:08:42;16.81;80.77
66373;SHT30;53168;51.146;17.120;2023-08-30T07:11:12;16.77;80.71
66373;SHT30;53168;51.146;17.120;2023-08-30T07:14:00;16.82;80.89
66373;SHT30;53168;51.146;17.120;2023-08-30T07:16:36;16.89;80.79
66373;SHT30;53168;51.146;17.120;2023-08-30T08:22:06;16.75;78.51
66373;SHT30;53168;51.146;17.120;2023-08-30T08:25:09;16.66;78.60
66373;SHT30;53168;51.146;17.120;2023-08-30T08:27:41;16.62;78.70
66373;SHT30;53168;51.146;17.120;2023-08-30T08:30:12;16.60;78.84
66373;SHT30;53168;51.146;17.120;2023-08-30T08:32:42;16.67;78.90
66373;SHT30;53168;51.146;17.120;2023-08-30T08:35:14;16.68;78.67
66373;SHT30;53168;51.146;17.120;2023-08-30T08:37:44;16.66;78.62
66373;SHT30;53168;51.146;17.120;2023-08-30T08:40:14;16.62;78.54
66373;SHT30;53168;51.146;17.120;2023-08-30T08:42:54;16.62;78.69
66373;SHT30;53168;51.146;17.120;2023-08-30T08:45:25;16.65;78.71
66373;SHT30;53168;51.146;17.120;2023-08-30T08:47:56;16.70;78.69
66373;SHT30;53168;51.146;17.120;2023-08-30T08:50:26;16.76;78.47
66373;SHT30;53168;51.146;17.120;2023-08-30T08:52:59;16.77;78.35
66373;SHT30;53168;51.146;17.120;2023-08-30T08:55:31;16.75;78.35
66373;SHT30;53168;51.146;17.120;2023-08-30T08:58:04;16.73;78.42
66373;SHT30;53168;51.146;17.120;2023-08-30T09:00:33;16.68;78.41
66373;SHT30;53168;51.146;17.120;2023-08-30T09:03:04;16.68;78.39
66373;SHT30;53168;51.146;17.120;2023-08-30T09:05:37;16.71;78.37
66373;SHT30;53168;51.146;17.120;2023-08-30T09:08:10;16.72;78.41
66373;SHT30;53168;51.146;17.120;2023-08-30T09:10:42;16.73;78.56
66373;SHT30;53168;51.146;17.120;2023-08-30T09:13:11;16.73;78.52
66373;SHT30;53168;51.146;17.120;2023-08-30T09:15:41;16.75;78.56
66373;SHT30;53168;51.146;17.120;2023-08-30T09:18:16;16.80;78.39
66373;SHT30;53168;51.146;17.120;2023-08-30T09:20:46;16.86;78.28
66373;SHT30;53168;51.146;17.120;2023-08-30T09:23:20;17.00;78.26
66373;SHT30;53168;51.146;17.120;2023-08-30T09:25:55;17.11;78.00
66373;SHT30;53168;51.146;17.120;2023-08-30T09:28:25;17.16;77.81
66373;SHT30;53168;51.146;17.120;2023-08-30T09:30:56;17.20;77.57
66373;SHT30;53168;51.146;17.120;2023-08-30T09:33:45;17.16;77.55
66373;SHT30;53168;51.146;17.120;2023-08-30T09:36:16;17.07;77.39
66373;SHT30;53168;51.146;17.120;2023-08-30T09:38:49;16.94;77.53
66373;SHT30;53168;51.146;17.120;2023-08-30T09:41:20;16.86;77.74
66373;SHT30;53168;51.146;17.120;2023-08-30T09:43:50;16.82;77.81
66373;SHT30;53168;51.146;17.120;2023-08-30T09:46:48;16.84;77.95
66373;SHT30;53168;51.146;17.120;2023-08-30T09:49:22;16.82;77.94
66373;SHT30;53168;51.146;17.120;2023-08-30T09:51:54;16.77;77.96
66373;SHT30;53168;51.146;17.120;2023-08-30T09:54:32;16.75;78.02
66373;SHT30;53168;51.146;17.120;2023-08-30T09:57:08;16.92;77.97
66373;SHT30;53168;51.146;17.120;2023-08-30T09:59:40;17.17;77.71
66373;SHT30;53168;51.146;17.120;2023-08-30T10:02:10;17.33;77.36
66373;SHT30;53168;51.146;17.120;2023-08-30T10:04:40;17.44;77.28
66373;SHT30;53168;51.146;17.120;2023-08-30T10:07:13;17.52;77.02
66373;SHT30;53168;51.146;17.120;2023-08-30T10:09:44;17.56;76.81
66373;SHT30;53168;51.146;17.120;2023-08-30T10:12:34;17.56;76.89
66373;SHT30;53168;51.146;17.120;2023-08-30T10:15:06;17.49;76.95
66373;SHT30;53168;51.146;17.120;2023-08-30T10:17:40;17.42;77.08
66373;SHT30;53168;51.146;17.120;2023-08-30T10:20:13;17.33;77.09
66373;SHT30;53168;51.146;17.120;2023-08-30T10:22:46;17.21;77.23
66373;SHT30;53168;51.146;17.120;2023-08-30T10:25:21;17.13;77.41
66373;SHT30;53168;51.146;17.120;2023-08-30T10:27:55;17.13;77.53
66373;SHT30;53168;51.146;17.120;2023-08-30T10:30:27;17.21;77.38
66373;SHT30;53168;51.146;17.120;2023-08-30T10:32:57;17.34;77.30
66373;SHT30;53168;51.146;17.120;2023-08-30T10:35:28;17.50;77.19
66373;SHT30;53168;51.146;17.120;2023-08-30T10:38:00;17.68;76.85
66373;SHT30;53168;51.146;17.120;2023-08-30T10:40:30;17.82;76.59
66373;SHT30;53168;51.146;17.120;2023-08-30T10:43:01;17.86;76.10
66373;SHT30;53168;51.146;17.120;2023-08-30T10:45:32;17.95;76.20
66373;SHT30;53168;51.146;17.120;2023-08-30T10:48:02;18.10;76.12
66373;SHT30;53168;51.146;17.120;2023-08-30T10:50:34;18.17;75.65
66373;SHT30;53168;51.146;17.120;2023-08-30T10:53:13;18.14;75.66
66373;SHT30;53168;51.146;17.120;2023-08-30T10:56:03;18.01;75.35
66373;SHT30;53168;51.146;17.120;2023-08-30T10:58:43;17.86;75.53
66373;SHT30;53168;51.146;17.120;2023-08-30T11:01:13;17.76;75.75
66373;SHT30;53168;51.146;17.120;2023-08-30T11:03:45;17.68;75.75
66373;SHT30;53168;51.146;17.120;2023-08-30T11:06:15;17.64;75.81
66373;SHT30;53168;51.146;17.120;2023-08-30T11:08:46;17.59;75.74
66373;SHT30;53168;51.146;17.120;2023-08-30T11:11:18;17.52;75.77
66373;SHT30;53168;51.146;17.120;2023-08-30T11:13:49;17.46;75.94
66373;SHT30;53168;51.146;17.120;2023-08-30T11:16:22;17.43;76.12
66373;SHT30;53168;51.146;17.120;2023-08-30T11:18:53;17.47;76.30
66373;SHT30;53168;51.146;17.120;2023-08-30T11:35:51;17.68;75.99
66373;SHT30;53168;51.146;17.120;2023-08-30T11:38:25;17.80;75.70
66373;SHT30;53168;51.146;17.120;2023-08-30T11:41:00;17.99;75.45
66373;SHT30;53168;51.146;17.120;2023-08-30T11:43:37;18.32;75.11
66373;SHT30;53168;51.146;17.120;2023-08-30T11:46:23;18.60;74.54
66373;SHT30;53168;51.146;17.120;2023-08-30T11:48:57;19.14;74.22
66373;SHT30;53168;51.146;17.120;2023-08-30T11:51:34;19.72;73.34
66373;SHT30;53168;51.146;17.120;2023-08-30T11:54:10;20.08;72.48
66373;SHT30;53168;51.146;17.120;2023-08-30T11:56:49;20.13;71.82
66373;SHT30;53168;51.146;17.120;2023-08-30T11:59:24;19.92;72.06
66373;SHT30;53168;51.146;17.120;2023-08-30T12:02:02;19.71;72.40
66373;SHT30;53168;51.146;17.120;2023-08-30T12:04:45;19.52;72.43
66373;SHT30;53168;51.146;17.120;2023-08-30T12:07:28;19.34;72.31
66373;SHT30;53168;51.146;17.120;2023-08-30T12:15:14;19.26;72.25
66373;SHT30;53168;51.146;17.120;2023-08-30T12:17:50;19.13;72.20
66373;SHT30;53168;51.146;17.120;2023-08-30T12:20:30;19.02;72.09
66373;SHT30;53168;51.146;17.120;2023-08-30T12:23:04;18.90;72.08
66373;SHT30;53168;51.146;17.120;2023-08-30T12:25:39;18.74;72.15
66373;SHT30;53168;51.146;17.120;2023-08-30T12:28:16;18.51;72.08
66373;SHT30;53168;51.146;17.120;2023-08-30T12:31:11;18.20;72.51
66373;SHT30;53168;51.146;17.120;2023-08-30T12:33:53;17.97;73.05
66373;SHT30;53168;51.146;17.120;2023-08-30T12:36:31;17.84;73.12
66373;SHT30;53168;51.146;17.120;2023-08-30T12:39:05;17.83;73.23
66373;SHT30;53168;51.146;17.120;2023-08-30T12:41:40;18.02;73.19
66373;SHT30;53168;51.146;17.120;2023-08-30T12:44:13;18.55;72.67
66373;SHT30;53168;51.146;17.120;2023-08-30T12:46:47;19.19;71.93
66373;SHT30;53168;51.146;17.120;2023-08-30T12:49:21;19.57;71.06
66373;SHT30;53168;51.146;17.120;2023-08-30T12:52:03;19.75;70.84
66373;SHT30;53168;51.146;17.120;2023-08-30T12:54:37;19.76;70.91
66373;SHT30;53168;51.146;17.120;2023-08-30T12:57:11;19.67;70.92
66373;SHT30;53168;51.146;17.120;2023-08-30T12:59:44;19.46;70.71
66373;SHT30;53168;51.146;17.120;2023-08-30T13:02:18;19.17;71.04
66373;SHT30;53168;51.146;17.120;2023-08-30T13:04:54;18.95;71.23
66373;SHT30;53168;51.146;17.120;2023-08-30T13:07:28;18.84;71.25
66373;SHT30;53168;51.146;17.120;2023-08-30T13:10:09;18.84;71.26
66373;SHT30;53168;51.146;17.120;2023-08-30T13:12:43;18.90;71.26
66373;SHT30;53168;51.146;17.120;2023-08-30T13:15:16;18.95;70.98
66373;SHT30;53168;51.146;17.120;2023-08-30T13:17:50;19.22;70.77
66373;SHT30;53168;51.146;17.120;2023-08-30T13:20:24;19.72;70.61
66373;SHT30;53168;51.146;17.120;2023-08-30T13:22:58;20.00;69.71
66373;SHT30;53168;51.146;17.120;2023-08-30T13:25:31;19.92;69.40
66373;SHT30;53168;51.146;17.120;2023-08-30T13:28:06;19.73;69.37
66373;SHT30;53168;51.146;17.120;2023-08-30T13:30:46;19.50;69.75
66373;SHT30;53168;51.146;17.120;2023-08-30T13:33:22;19.30;70.04
66373;SHT30;53168;51.146;17.120;2023-08-30T13:35:56;19.06;70.33
66373;SHT30;53168;51.146;17.120;2023-08-30T13:38:29;18.79;70.66
66373;SHT30;53168;51.146;17.120;2023-08-30T13:41:03;18.56;71.16
66373;SHT30;53168;51.146;17.120;2023-08-30T13:43:36;18.44;71.31
66373;SHT30;53168;51.146;17.120;2023-08-30T13:46:10;18.35;71.40
66373;SHT30;53168;51.146;17.120;2023-08-30T13:48:44;18.30;71.48
66373;SHT30;53168;51.146;17.120;2023-08-30T13:51:27;18.33;71.39
66373;SHT30;53168;51.146;17.120;2023-08-30T13:54:00;18.50;71.39
66373;SHT30;53168;51.146;17.120;2023-08-30T13:56:35;18.74;70.97
66373;SHT30;53168;51.146;17.120;2023-08-30T13:59:09;19.01;70.62
66373;SHT30;53168;51.146;17.120;2023-08-30T14:01:43;19.19;70.23
66373;SHT30;53168;51.146;17.120;2023-08-30T14:04:18;19.21;70.08
66373;SHT30;53168;51.146;17.120;2023-08-30T14:06:52;19.17;70.31
66373;SHT30;53168;51.146;17.120;2023-08-30T14:09:26;19.10;70.04
66373;SHT30;53168;51.146;17.120;2023-08-30T14:12:00;19.03;70.10
66373;SHT30;53168;51.146;17.120;2023-08-30T14:14:36;19.05;70.24
66373;SHT30;53168;51.146;17.120;2023-08-30T14:17:09;19.11;70.14
66373;SHT30;53168;51.146;17.120;2023-08-30T14:19:43;19.11;70.00
66373;SHT30;53168;51.146;17.120;2023-08-30T14:22:17;19.01;70.14
66373;SHT30;53168;51.146;17.120;2023-08-30T14:24:51;18.90;70.13
66373;SHT30;53168;51.146;17.120;2023-08-30T14:27:41;18.80;70.29
66373;SHT30;53168;51.146;17.120;2023-08-30T14:30:16;18.68;70.31
66373;SHT30;53168;51.146;17.120;2023-08-30T14:32:50;18.59;70.32
66373;SHT30;53168;51.146;17.120;2023-08-30T14:35:32;18.59;70.26
66373;SHT30;53168;51.146;17.120;2023-08-30T14:38:06;18.68;70.30
66373;SHT30;53168;51.146;17.120;2023-08-30T14:40:41;18.90;70.01
66373;SHT30;53168;51.146;17.120;2023-08-30T14:43:14;19.09;69.82
66373;SHT30;53168;51.146;17.120;2023-08-30T14:45:48;19.26;69.44
66373;SHT30;53168;51.146;17.120;2023-08-30T14:48:37;19.26;69.38
66373;SHT30;53168;51.146;17.120;2023-08-30T14:51:11;19.22;69.32
66373;SHT30;53168;51.146;17.120;2023-08-30T14:53:45;19.10;69.44
66373;SHT30;53168;51.146;17.120;2023-08-30T14:56:19;18.92;69.56
66373;SHT30;53168;51.146;17.120;2023-08-30T14:58:55;18.71;69.63
66373;SHT30;53168;51.146;17.120;2023-08-30T15:01:28;18.50;69.92
66373;SHT30;53168;51.146;17.120;2023-08-30T15:04:03;18.33;70.31
66373;SHT30;53168;51.146;17.120;2023-08-30T15:06:37;18.25;70.66
66373;SHT30;53168;51.146;17.120;2023-08-30T15:09:12;18.22;70.73
66373;SHT30;53168;51.146;17.120;2023-08-30T15:11:47;18.25;70.81
66373;SHT30;53168;51.146;17.120;2023-08-30T15:14:21;18.26;70.91
66373;SHT30;53168;51.146;17.120;2023-08-30T15:16:55;18.23;71.06
66373;SHT30;53168;51.146;17.120;2023-08-30T15:19:29;18.26;71.16
66373;SHT30;53168;51.146;17.120;2023-08-30T15:22:03;18.29;71.02
66373;SHT30;53168;51.146;17.120;2023-08-30T15:24:36;18.26;70.95
66373;SHT30;53168;51.146;17.120;2023-08-30T15:27:10;18.18;71.10
66373;SHT30;53168;51.146;17.120;2023-08-30T15:32:46;18.03;71.58
66373;SHT30;53168;51.146;17.120;2023-08-30T15:35:21;18.02;71.73
66373;SHT30;53168;51.146;17.120;2023-08-30T15:37:55;18.03;71.80
66373;SHT30;53168;51.146;17.120;2023-08-30T15:40:28;18.04;71.76
66373;SHT30;53168;51.146;17.120;2023-08-30T15:43:04;18.00;71.74
66373;SHT30;53168;51.146;17.120;2023-08-30T15:45:38;17.96;71.77
66373;SHT30;53168;51.146;17.120;2023-08-30T15:48:16;17.96;71.80
66373;SHT30;53168;51.146;17.120;2023-08-30T15:50:50;17.99;71.80
66373;SHT30;53168;51.146;17.120;2023-08-30T15:53:23;18.02;71.86
66373;SHT30;53168;51.146;17.120;2023-08-30T15:55:58;18.01;71.74
66373;SHT30;53168;51.146;17.120;2023-08-30T15:58:36;17.96;71.81
66373;SHT30;53168;51.146;17.120;2023-08-30T16:01:11;17.94;71.85
66373;SHT30;53168;51.146;17.120;2023-08-30T16:03:45;17.92;71.81
66373;SHT30;53168;51.146;17.120;2023-08-30T16:06:19;17.87;71.96
66373;SHT30;53168;51.146;17.120;2023-08-30T16:08:53;17.88;72.02
66373;SHT30;53168;51.146;17.120;2023-08-30T16:11:27;17.87;72.05
66373;SHT30;53168;51.146;17.120;2023-08-30T16:14:00;17.83;72.02
66373;SHT30;53168;51.146;17.120;2023-08-30T16:16:34;17.83;72.26
66373;SHT30;53168;51.146;17.120;2023-08-30T16:19:09;17.83;72.23
66373;SHT30;53168;51.146;17.120;2023-08-30T16:21:43;17.83;72.31
66373;SHT30;53168;51.146;17.120;2023-08-30T16:24:21;17.78;72.28
66373;SHT30;53168;51.146;17.120;2023-08-30T16:26:57;17.71;72.47
66373;SHT30;53168;51.146;17.120;2023-08-30T16:29:31;17.63;72.58
66373;SHT30;53168;51.146;17.120;2023-08-30T16:32:06;17.55;72.70
66373;SHT30;53168;51.146;17.120;2023-08-30T16:34:39;17.53;72.76
66373;SHT30;53168;51.146;17.120;2023-08-30T16:37:15;17.49;72.87
66373;SHT30;53168;51.146;17.120;2023-08-30T16:39:51;17.47;73.10
66373;SHT30;53168;51.146;17.120;2023-08-30T16:42:25;17.46;73.20
66373;SHT30;53168;51.146;17.120;2023-08-30T16:44:59;17.47;73.29
66373;SHT30;53168;51.146;17.120;2023-08-30T16:47:36;17.48;73.32
66373;SHT30;53168;51.146;17.120;2023-08-30T16:50:31;17.46;73.42
66373;SHT30;53168;51.146;17.120;2023-08-30T16:53:07;17.41;73.50
66373;SHT30;53168;51.146;17.120;2023-08-30T16:55:44;17.36;73.60
66373;SHT30;53168;51.146;17.120;2023-08-30T16:58:17;17.32;73.67
66373;SHT30;53168;51.146;17.120;2023-08-30T17:00:53;17.28;73.79
66373;SHT30;53168;51.146;17.120;2023-08-30T17:03:27;17.27;73.89
66373;SHT30;53168;51.146;17.120;2023-08-30T17:06:04;17.27;73.99
66373;SHT30;53168;51.146;17.120;2023-08-30T17:08:45;17.25;74.06
66373;SHT30;53168;51.146;17.120;2023-08-30T17:11:19;17.21;74.13
66373;SHT30;53168;51.146;17.120;2023-08-30T17:13:52;17.18;74.24
66373;SHT30;53168;51.146;17.120;2023-08-30T17:16:27;17.15;74.36
66373;SHT30;53168;51.146;17.120;2023-08-30T17:19:01;17.11;74.50
66373;SHT30;53168;51.146;17.120;2023-08-30T17:21:35;17.08;74.65
66373;SHT30;53168;51.146;17.120;2023-08-30T17:24:09;17.05;74.75
66373;SHT30;53168;51.146;17.120;2023-08-30T17:26:43;17.02;74.84